Time;durP1;ratioP1;P1;durP2;ratioP2;P2;SDS_P1;SDS_P2;PMS_P1;PMS_P2;Temp;Humidity;BMP_temperature;BMP_pressure;BME280_temperature;BME280_humidity;BME280_pressure;Samples;Min_cycle;Max_cycle;Signal;HPM_P1;HPM_P2
2024/01/28 00:01:53;;;;;;;10.82;4.60;;;;;;;4.41;100.00;101588.25;5034820;28;20033;-71
2024/01/28 00:04:18;;;;;;;12.35;4.07;;;;;;;4.40;100.00;101582.97;5018432;28;20053;-71
2024/01/28 00:06:44;;;;;;;10.30;4.43;;;;;;;4.39;100.00;101573.03;5001502;28;20478;-71
2024/01/28 00:09:09;;;;;;;11.60;5.03;;;;;;;4.39;100.00;101570.28;5034800;28;20394;-71
2024/01/28 00:11:36;;;;;;;11.18;4.75;;;;;;;4.37;100.00;101580.66;5034514;28;20025;-71
2024/01/28 00:14:02;;;;;;;7.15;3.83;;;;;;;4.33;100.00;101576.72;5015012;28;20435;-71
2024/01/28 00:16:27;;;;;;;13.05;4.43;;;;;;;4.31;100.00;101576.09;5032698;28;20030;-71
2024/01/28 00:18:58;;;;;;;10.43;4.43;;;;;;;4.34;100.00;101570.13;5034897;28;20037;-71
2024/01/28 00:21:27;;;;;;;7.45;3.92;;;;;;;4.34;100.00;101570.13;5035198;28;20029;-71
2024/01/28 00:23:52;;;;;;;12.95;4.38;;;;;;;4.31;100.00;101568.66;5034241;28;20052;-71
2024/01/28 00:26:18;;;;;;;9.50;4.20;;;;;;;4.31;100.00;101565.91;5017819;28;20041;-71
2024/01/28 00:28:44;;;;;;;9.00;4.28;;;;;;;4.30;100.00;101563.41;5018095;28;20037;-71
2024/01/28 00:31:10;;;;;;;8.88;4.38;;;;;;;4.33;100.00;101554.72;5001518;28;20033;-71
2024/01/28 00:33:35;;;;;;;10.30;4.22;;;;;;;4.30;100.00;101550.50;4985461;28;20505;-71
2024/01/28 00:36:01;;;;;;;8.95;4.30;;;;;;;4.30;100.00;101542.25;4988610;28;20501;-71
2024/01/28 00:38:31;;;;;;;9.75;4.15;;;;;;;4.31;100.00;101532.09;5034288;28;20079;-71
2024/01/28 00:41:00;;;;;;;14.18;4.30;;;;;;;4.29;100.00;101529.56;5058929;28;20513;-71
2024/01/28 00:43:27;;;;;;;13.25;4.55;;;;;;;4.27;100.00;101525.38;5018223;28;20037;-71
2024/01/28 00:45:52;;;;;;;12.05;4.50;;;;;;;4.31;100.00;101526.59;5006245;28;20076;-71
2024/01/28 00:48:18;;;;;;;12.63;4.10;;;;;;;4.23;100.00;101531.34;5016995;28;20030;-71
2024/01/28 00:50:43;;;;;;;7.93;4.65;;;;;;;4.27;100.00;101526.22;5019958;28;20414;-71
2024/01/28 00:53:09;;;;;;;7.88;4.00;;;;;;;4.27;100.00;101526.22;5023927;28;20025;-71
2024/01/28 00:55:34;;;;;;;12.95;4.57;;;;;;;4.29;100.00;101528.72;5007997;28;20037;-71
2024/01/28 00:58:02;;;;;;;13.07;4.18;;;;;;;4.28;100.00;101527.03;5024059;28;20650;-71
2024/01/28 01:00:31;;;;;;;10.57;4.00;;;;;;;4.24;100.00;101522.00;5024383;28;20105;-71
2024/01/28 01:02:56;;;;;;;7.32;4.05;;;;;;;4.27;100.00;101517.97;5000087;28;20033;-71
2024/01/28 01:05:22;;;;;;;10.43;4.47;;;;;;;4.25;100.00;101515.41;5020986;28;20054;-71
2024/01/28 01:07:47;;;;;;;11.68;4.35;;;;;;;4.23;100.00;101509.34;5037056;28;20085;-71
2024/01/28 01:10:13;;;;;;;9.90;4.40;;;;;;;4.24;100.00;101500.00;5005822;28;20037;-71
2024/01/28 01:12:39;;;;;;;9.35;4.03;;;;;;;4.24;100.00;101499.16;5024092;28;20025;-71
2024/01/28 01:15:05;;;;;;;11.25;4.63;;;;;;;4.23;100.00;101500.22;5023993;28;20087;-71
2024/01/28 01:17:30;;;;;;;15.60;4.88;;;;;;;4.25;100.00;101490.66;5040548;28;20426;-71
2024/01/28 01:19:56;;;;;;;9.35;4.75;;;;;;;4.21;100.00;101483.97;5040730;28;20033;-71
2024/01/28 01:22:21;;;;;;;10.60;4.57;;;;;;;4.25;100.00;101479.66;5037080;28;20112;-71
2024/01/28 01:24:47;;;;;;;9.32;4.43;;;;;;;4.26;100.00;101480.50;5039506;28;20049;-71
2024/01/28 01:27:13;;;;;;;10.93;4.68;;;;;;;4.29;100.00;101479.22;5041621;28;20501;-71
2024/01/28 01:29:38;;;;;;;11.55;4.20;;;;;;;4.29;100.00;101476.47;5006924;28;20048;-71
2024/01/28 01:32:04;;;;;;;7.78;3.90;;;;;;;4.22;100.00;101471.03;5007418;28;20481;-71
2024/01/28 01:34:29;;;;;;;10.05;4.50;;;;;;;4.21;100.00;101470.22;5005384;28;20030;-71
2024/01/28 01:36:55;;;;;;;10.23;5.32;;;;;;;4.21;100.00;101470.22;5007418;28;20041;-71
2024/01/28 01:39:20;;;;;;;10.48;4.65;;;;;;;4.21;100.00;101461.97;5021751;28;20026;-71
2024/01/28 01:41:46;;;;;;;12.35;5.35;;;;;;;4.20;100.00;101465.75;5047435;28;20537;-71
2024/01/28 01:44:12;;;;;;;10.65;4.90;;;;;;;4.18;100.00;101464.31;5007342;28;20529;-71
2024/01/28 01:46:38;;;;;;;13.55;4.78;;;;;;;4.16;100.00;101452.72;5015964;28;20509;-71
2024/01/28 01:49:06;;;;;;;10.02;4.90;;;;;;;4.17;100.00;101455.22;5040382;28;20108;-71
2024/01/28 01:51:32;;;;;;;10.02;5.15;;;;;;;4.19;100.00;101453.09;5023912;28;20037;-71
2024/01/28 01:53:57;;;;;;;9.02;4.85;;;;;;;4.16;100.00;101447.22;5023349;28;20034;-71
2024/01/28 01:56:23;;;;;;;8.88;4.75;;;;;;;4.13;100.00;101437.53;4990973;28;20033;-71
2024/01/28 01:58:48;;;;;;;12.73;4.70;;;;;;;4.12;100.00;101446.81;4993713;28;20026;-71
2024/01/28 02:01:16;;;;;;;9.10;5.07;;;;;;;4.12;100.00;101435.81;5030248;28;20030;-71
2024/01/28 02:03:42;;;;;;;11.98;4.88;;;;;;;4.10;100.00;101440.72;5020921;28;20037;-71
2024/01/28 02:06:10;;;;;;;8.57;4.90;;;;;;;4.10;100.00;101434.41;5020670;28;20033;-71
2024/01/28 02:08:36;;;;;;;9.45;4.35;;;;;;;4.08;100.00;101431.03;5036976;28;20079;-71
2024/01/28 02:11:04;;;;;;;10.60;5.13;;;;;;;4.05;100.00;101429.56;5004252;28;20087;-71
2024/01/28 02:13:29;;;;;;;14.75;4.88;;;;;;;4.07;100.00;101419.19;5008704;28;20108;-71
2024/01/28 02:15:55;;;;;;;13.23;5.20;;;;;;;4.08;100.00;101422.78;5038186;28;20029;-70
2024/01/28 02:18:20;;;;;;;8.95;4.38;;;;;;;4.04;100.00;101411.41;5036735;28;20474;-71
2024/01/28 02:20:46;;;;;;;13.52;4.45;;;;;;;4.01;100.00;101412.72;5036861;28;20033;-71
2024/01/28 02:23:17;;;;;;;11.10;4.85;;;;;;;4.00;100.00;101426.66;5036524;28;20135;-71
2024/01/28 02:25:43;;;;;;;8.77;5.10;;;;;;;4.00;100.00;101422.00;5004280;28;20041;-71
2024/01/28 02:28:08;;;;;;;11.23;4.60;;;;;;;3.98;100.00;101424.16;5036360;28;20030;-71
2024/01/28 02:30:35;;;;;;;10.10;4.45;;;;;;;3.99;100.00;101422.25;5020141;28;20037;-71
2024/01/28 02:33:01;;;;;;;9.60;4.78;;;;;;;3.97;100.00;101418.88;5053022;28;20065;-71
2024/01/28 02:35:26;;;;;;;10.75;4.60;;;;;;;3.96;100.00;101415.28;5020172;28;20445;-71
2024/01/28 02:37:52;;;;;;;13.18;4.95;;;;;;;3.99;100.00;101419.50;5052786;28;20026;-71
2024/01/28 02:40:18;;;;;;;10.20;4.63;;;;;;;3.96;100.00;101420.78;5019816;28;20429;-71
2024/01/28 02:42:43;;;;;;;11.27;5.32;;;;;;;3.90;100.00;101407.09;5036782;28;20025;-71
2024/01/28 02:45:09;;;;;;;8.30;4.13;;;;;;;3.97;100.00;101410.63;5029749;28;20022;-71
2024/01/28 02:47:34;;;;;;;12.25;5.00;;;;;;;3.95;100.00;101404.50;5002019;28;20030;-71
2024/01/28 02:50:00;;;;;;;11.82;5.10;;;;;;;3.93;100.00;101407.50;5016444;28;20049;-71
2024/01/28 02:52:25;;;;;;;14.23;5.32;;;;;;;3.93;100.00;101409.41;5033945;28;20091;-71
2024/01/28 02:54:51;;;;;;;12.30;5.10;;;;;;;3.94;100.00;101403.69;5019751;28;20029;-71
2024/01/28 02:57:16;;;;;;;11.95;5.03;;;;;;;3.92;100.00;101403.06;4999660;28;20030;-71
2024/01/28 02:59:41;;;;;;;9.75;5.53;;;;;;;3.92;100.00;101393.97;5019140;28;20034;-71
2024/01/28 03:02:07;;;;;;;11.10;5.13;;;;;;;3.91;100.00;101389.56;5019594;28;20040;-71
2024/01/28 03:04:39;;;;;;;10.68;4.95;;;;;;;3.93;100.00;101387.44;5019259;28;20033;-71
2024/01/28 03:07:06;;;;;;;10.25;4.50;;;;;;;3.92;100.00;101399.47;5019489;28;20037;-71
2024/01/28 03:09:31;;;;;;;8.32;4.68;;;;;;;3.87;100.00;101397.41;5002967;28;20541;-71
2024/01/28 03:11:57;;;;;;;11.23;4.97;;;;;;;3.86;100.00;101392.16;5017028;28;20037;-71
2024/01/28 03:14:22;;;;;;;14.18;5.53;;;;;;;3.87;100.00;101393.81;5018935;28;20041;-71
2024/01/28 03:16:48;;;;;;;12.93;5.15;;;;;;;3.86;100.00;101384.75;5019243;28;20033;-71
2024/01/28 03:19:15;;;;;;;6.93;4.30;;;;;;;3.86;100.00;101390.25;5035649;28;20029;-71
2024/01/28 03:21:40;;;;;;;9.93;4.70;;;;;;;3.86;100.00;101397.66;5017221;28;20041;-71
2024/01/28 03:24:06;;;;;;;9.35;4.93;;;;;;;3.88;100.00;101392.78;5019009;28;20054;-71
2024/01/28 03:26:34;;;;;;;10.73;4.60;;;;;;;3.89;100.00;101391.69;5016891;28;20030;-71
2024/01/28 03:28:59;;;;;;;11.93;4.88;;;;;;;3.89;100.00;101388.94;5035475;28;20029;-71
2024/01/28 03:31:25;;;;;;;10.05;5.30;;;;;;;3.84;100.00;101389.63;5017509;28;20030;-71
2024/01/28 03:33:50;;;;;;;12.80;5.45;;;;;;;3.85;100.00;101385.00;5002656;28;20028;-71
2024/01/28 03:36:16;;;;;;;9.63;4.88;;;;;;;3.79;100.00;101376.59;5000987;28;20041;-71
2024/01/28 03:38:41;;;;;;;9.90;5.38;;;;;;;3.81;100.00;101390.06;5035342;28;20030;-71
2024/01/28 03:41:07;;;;;;;10.65;5.18;;;;;;;3.79;100.00;101379.34;5031826;28;20029;-71
2024/01/28 03:43:32;;;;;;;13.32;5.00;;;;;;;3.81;100.00;101370.84;5008508;28;20040;-71
2024/01/28 03:45:58;;;;;;;18.02;5.80;;;;;;;3.79;100.00;101368.34;5007413;28;20030;-71
2024/01/28 03:48:23;;;;;;;13.82;5.47;;;;;;;3.79;100.00;101370.25;5002169;28;20026;-71
2024/01/28 03:50:49;;;;;;;9.35;5.32;;;;;;;3.76;100.00;101365.19;5018626;28;20029;-71
2024/01/28 03:53:15;;;;;;;12.48;5.82;;;;;;;3.77;100.00;101362.22;5001959;28;20044;-71
2024/01/28 03:55:43;;;;;;;11.95;5.25;;;;;;;3.75;100.00;101361.59;4990595;28;20025;-71
2024/01/28 03:58:09;;;;;;;8.65;4.78;;;;;;;3.77;100.00;101353.16;5043687;28;20038;-71
2024/01/28 04:00:35;;;;;;;12.05;4.95;;;;;;;3.75;100.00;101361.59;5018386;28;20037;-71
2024/01/28 04:03:01;;;;;;;15.68;5.80;;;;;;;3.73;100.00;101358.25;5002130;28;20052;-71
2024/01/28 04:05:26;;;;;;;10.15;5.38;;;;;;;3.68;100.00;101357.28;5032156;28;20510;-71
2024/01/28 04:07:52;;;;;;;9.82;4.97;;;;;;;3.71;100.00;101359.56;5018480;28;20052;-71
2024/01/28 04:10:18;;;;;;;8.73;4.82;;;;;;;3.71;100.00;101346.66;5015821;28;20117;-71
2024/01/28 04:12:43;;;;;;;7.55;4.60;;;;;;;3.67;100.00;101342.66;5018181;28;20536;-71
2024/01/28 04:15:09;;;;;;;10.40;5.22;;;;;;;3.70;100.00;101333.97;5018111;28;20057;-71
2024/01/28 04:17:35;;;;;;;8.85;4.88;;;;;;;3.67;100.00;101326.19;5018062;28;20033;-71
2024/01/28 04:20:02;;;;;;;9.70;4.80;;;;;;;3.66;100.00;101331.94;5034488;28;20037;-71
2024/01/28 04:22:27;;;;;;;10.77;4.90;;;;;;;3.64;100.00;101323.06;5034633;28;20056;-71
2024/01/28 04:24:53;;;;;;;10.95;5.10;;;;;;;3.66;100.00;101330.00;5033979;28;20449;-71
2024/01/28 04:27:18;;;;;;;9.60;4.75;;;;;;;3.62;100.00;101327.94;5017679;28;20025;-71
2024/01/28 04:29:45;;;;;;;11.63;5.40;;;;;;;3.60;100.00;101330.94;5034546;28;20061;-71
2024/01/28 04:32:11;;;;;;;10.02;5.57;;;;;;;3.60;100.00;101330.09;5034603;28;20073;-71
2024/01/28 04:34:36;;;;;;;8.93;4.68;;;;;;;3.56;100.00;101321.44;5034236;28;20037;-71
2024/01/28 04:37:02;;;;;;;11.45;5.47;;;;;;;3.57;100.00;101313.00;5034364;28;20030;-71
2024/01/28 04:39:28;;;;;;;11.63;5.50;;;;;;;3.54;100.00;101316.19;5035137;28;20042;-71
2024/01/28 04:41:53;;;;;;;12.85;5.20;;;;;;;3.55;100.00;101317.03;5021363;28;20037;-71
2024/01/28 04:44:19;;;;;;;9.15;5.10;;;;;;;3.53;100.00;101310.91;5001364;28;20025;-71
2024/01/28 04:46:45;;;;;;;8.63;5.10;;;;;;;3.56;100.00;101310.47;5001208;28;20045;-71
2024/01/28 04:49:11;;;;;;;13.55;5.30;;;;;;;3.48;100.00;101300.63;4988727;28;20438;-71
2024/01/28 04:51:36;;;;;;;10.40;5.20;;;;;;;3.47;100.00;101295.38;5025787;28;20029;-70
2024/01/28 04:54:02;;;;;;;14.20;5.60;;;;;;;3.46;100.00;101289.03;5033801;28;20030;-71
2024/01/28 04:56:27;;;;;;;9.75;4.82;;;;;;;3.45;100.00;101281.84;4985110;28;20056;-71
2024/01/28 04:58:53;;;;;;;11.55;5.25;;;;;;;3.41;100.00;101277.88;5014325;28;20048;-71
2024/01/28 05:01:18;;;;;;;8.93;4.85;;;;;;;3.45;100.00;101278.25;5017442;28;20478;-71
2024/01/28 05:03:44;;;;;;;11.32;4.63;;;;;;;3.40;100.00;101283.59;5033960;28;20041;-71
2024/01/28 05:06:09;;;;;;;13.45;5.22;;;;;;;3.40;100.00;101281.72;5017827;28;20033;-71
2024/01/28 05:08:35;;;;;;;11.73;5.82;;;;;;;3.43;100.00;101280.41;5017429;28;20025;-71
2024/01/28 05:11:01;;;;;;;10.35;5.25;;;;;;;3.42;100.00;101282.31;5035238;28;20038;-71
2024/01/28 05:13:26;;;;;;;10.80;5.20;;;;;;;3.38;100.00;101274.78;5001093;28;20379;-71
2024/01/28 05:15:52;;;;;;;11.43;5.78;;;;;;;3.39;100.00;101270.94;5030654;28;20097;-71
2024/01/28 05:18:18;;;;;;;11.88;5.53;;;;;;;3.34;100.00;101267.00;5049259;28;20087;-71
2024/01/28 05:20:44;;;;;;;14.40;5.85;;;;;;;3.36;100.00;101266.75;5026561;28;20040;-71
2024/01/28 05:23:10;;;;;;;10.75;5.25;;;;;;;3.33;100.00;101268.03;5033854;28;20066;-71
2024/01/28 05:25:35;;;;;;;12.77;5.60;;;;;;;3.34;100.00;101264.25;5017560;28;20068;-71
2024/01/28 05:28:01;;;;;;;12.55;5.50;;;;;;;3.34;100.00;101264.25;5033773;28;20029;-70
2024/01/28 05:30:27;;;;;;;10.80;5.40;;;;;;;3.33;100.00;101253.47;5033810;28;20030;-71
2024/01/28 05:32:53;;;;;;;9.35;5.55;;;;;;;3.33;100.00;101257.06;5032249;28;20033;-71
2024/01/28 05:35:18;;;;;;;11.82;5.20;;;;;;;3.34;100.00;101244.16;5017509;28;20112;-71
2024/01/28 05:37:44;;;;;;;12.15;5.60;;;;;;;3.33;100.00;101247.97;4999676;28;20033;-71
2024/01/28 05:40:10;;;;;;;11.35;5.07;;;;;;;3.33;100.00;101232.34;5035397;28;20489;-71
2024/01/28 05:42:36;;;;;;;10.32;5.30;;;;;;;3.30;100.00;101240.22;5018037;28;20055;-71
2024/01/28 05:45:02;;;;;;;11.10;5.20;;;;;;;3.35;100.00;101243.13;5000655;28;20037;-71
2024/01/28 05:47:27;;;;;;;11.38;5.50;;;;;;;3.32;100.00;101229.84;5002194;28;20470;-71
2024/01/28 05:49:53;;;;;;;11.13;5.00;;;;;;;3.32;100.00;101238.91;5018607;28;20067;-71
2024/01/28 05:52:18;;;;;;;12.00;5.70;;;;;;;3.33;100.00;101224.09;5031089;28;20057;-71
2024/01/28 05:54:44;;;;;;;9.75;5.60;;;;;;;3.36;100.00;101226.38;5016644;28;20036;-71
2024/01/28 05:57:09;;;;;;;11.25;5.85;;;;;;;3.30;100.00;101230.06;5002276;28;20041;-71
2024/01/28 05:59:36;;;;;;;9.77;4.85;;;;;;;3.33;100.00;101240.56;5002358;28;20085;-71
2024/01/28 06:02:02;;;;;;;10.05;5.05;;;;;;;3.32;100.00;101233.41;5016432;28;20029;-71
2024/01/28 06:04:27;;;;;;;11.50;5.43;;;;;;;3.27;100.00;101230.50;5034308;28;20029;-71
2024/01/28 06:06:53;;;;;;;7.80;5.25;;;;;;;3.29;100.00;101233.03;5048521;28;20037;-71
2024/01/28 06:09:19;;;;;;;8.50;5.32;;;;;;;3.29;100.00;101227.56;5015099;28;20022;-71
2024/01/28 06:11:46;;;;;;;10.02;5.57;;;;;;;3.30;100.00;101218.25;5017258;28;20029;-71
2024/01/28 06:14:11;;;;;;;12.50;5.70;;;;;;;3.30;100.00;101218.25;5016217;28;20030;-71
2024/01/28 06:16:37;;;;;;;10.50;5.95;;;;;;;3.26;100.00;101219.75;5049393;28;20646;-71
2024/01/28 06:19:03;;;;;;;13.15;5.75;;;;;;;3.30;100.00;101221.00;5032873;28;20485;-71
2024/01/28 06:21:28;;;;;;;11.30;5.97;;;;;;;3.24;100.00;101227.41;5017655;28;20029;-71
2024/01/28 06:23:54;;;;;;;10.27;5.38;;;;;;;3.23;100.00;101226.56;5016383;28;20658;-71
2024/01/28 06:26:20;;;;;;;10.68;5.65;;;;;;;3.26;100.00;101222.50;5017085;28;20429;-71
2024/01/28 06:28:45;;;;;;;9.25;5.70;;;;;;;3.21;100.00;101219.63;5015601;28;20076;-71
2024/01/28 06:31:12;;;;;;;12.82;5.90;;;;;;;3.26;100.00;101206.03;5031199;28;20034;-71
2024/01/28 06:33:38;;;;;;;9.68;5.50;;;;;;;3.25;100.00;101207.09;5001676;28;20025;-71
2024/01/28 06:36:04;;;;;;;10.40;4.88;;;;;;;3.21;100.00;101212.22;5048881;28;20032;-71
2024/01/28 06:38:30;;;;;;;11.25;6.18;;;;;;;3.25;100.00;101210.69;5030656;28;20033;-71
2024/01/28 06:40:59;;;;;;;14.05;6.07;;;;;;;3.22;100.00;101219.38;5034153;28;20080;-71
2024/01/28 06:43:25;;;;;;;10.07;5.55;;;;;;;3.22;100.00;101213.06;5030938;28;20041;-71
2024/01/28 06:45:54;;;;;;;11.35;6.00;;;;;;;3.22;100.00;101205.66;5028059;28;20036;-71
2024/01/28 06:48:19;;;;;;;10.70;5.80;;;;;;;3.23;100.00;101209.22;4999395;28;20037;-71
2024/01/28 06:50:46;;;;;;;11.80;5.63;;;;;;;3.21;100.00;101198.50;5034055;28;20029;-71
2024/01/28 06:53:11;;;;;;;14.82;6.05;;;;;;;3.18;100.00;101207.19;5036035;28;20052;-71
2024/01/28 06:55:37;;;;;;;10.20;6.32;;;;;;;3.17;100.00;101213.72;5003563;28;20030;-71
2024/01/28 06:58:03;;;;;;;12.30;5.97;;;;;;;3.18;100.00;101222.81;5019372;28;20036;-71
2024/01/28 07:00:28;;;;;;;15.30;7.22;;;;;;;3.17;100.00;101216.47;5036003;28;20116;-71
2024/01/28 07:02:54;;;;;;;8.98;6.13;;;;;;;3.17;100.00;101219.22;5035951;28;20029;-71
2024/01/28 07:05:20;;;;;;;10.82;6.15;;;;;;;3.19;100.00;101219.84;5019175;28;20080;-71
2024/01/28 07:07:46;;;;;;;12.57;6.70;;;;;;;3.17;100.00;101219.22;5027486;28;20053;-71
2024/01/28 07:10:11;;;;;;;11.95;6.78;;;;;;;3.16;100.00;101216.72;5032695;28;20022;-71
2024/01/28 07:12:38;;;;;;;11.15;6.47;;;;;;;3.16;100.00;101217.56;5035500;28;20173;-71
2024/01/28 07:15:05;;;;;;;13.43;7.03;;;;;;;3.19;100.00;101208.84;5019279;28;20025;-71
2024/01/28 07:17:31;;;;;;;12.45;7.03;;;;;;;3.19;100.00;101203.38;5019718;28;20039;-71
2024/01/28 07:19:56;;;;;;;13.65;7.15;;;;;;;3.16;100.00;101198.34;5002704;28;20038;-71
2024/01/28 07:22:22;;;;;;;13.52;7.80;;;;;;;3.18;100.00;101192.63;5035758;28;20060;-71
2024/01/28 07:24:48;;;;;;;14.48;7.85;;;;;;;3.17;100.00;101202.75;5018944;28;20064;-71
2024/01/28 07:27:14;;;;;;;13.35;7.82;;;;;;;3.16;100.00;101203.00;5044974;28;20057;-71
2024/01/28 07:29:39;;;;;;;14.75;8.27;;;;;;;3.15;100.00;101215.88;5018643;28;20186;-71
2024/01/28 07:32:05;;;;;;;14.75;8.77;;;;;;;3.18;100.00;101218.16;5002550;28;20033;-71
2024/01/28 07:34:30;;;;;;;16.73;10.30;;;;;;;3.15;100.00;101196.66;4999450;28;20044;-71
2024/01/28 07:36:57;;;;;;;17.02;9.27;;;;;;;3.17;100.00;101212.91;5002428;28;20032;-71
2024/01/28 07:39:23;;;;;;;15.50;9.13;;;;;;;3.15;100.00;101210.41;5018802;28;20030;-71
2024/01/28 07:41:49;;;;;;;17.23;9.43;;;;;;;3.13;100.00;101215.25;5040970;28;20029;-71
2024/01/28 07:44:14;;;;;;;16.85;9.48;;;;;;;3.09;100.00;101211.28;5012530;28;20045;-71
2024/01/28 07:46:39;;;;;;;14.23;8.90;;;;;;;3.13;100.00;101209.78;5002308;28;20390;-71
2024/01/28 07:49:06;;;;;;;15.23;8.90;;;;;;;3.18;100.00;101217.34;5015431;28;20034;-71
2024/01/28 07:51:31;;;;;;;14.40;8.73;;;;;;;3.12;100.00;101219.06;5031101;28;20459;-71
2024/01/28 07:53:57;;;;;;;15.07;8.43;;;;;;;3.10;100.00;101207.50;4982323;28;20034;-71
2024/01/28 07:56:22;;;;;;;15.68;8.20;;;;;;;3.12;100.00;101216.31;4998740;28;20032;-71
2024/01/28 07:58:48;;;;;;;12.75;8.55;;;;;;;3.13;100.00;101218.84;5000447;28;20108;-71
2024/01/28 08:01:13;;;;;;;16.33;8.95;;;;;;;3.12;100.00;101230.03;4982522;28;20049;-71
2024/01/28 08:03:39;;;;;;;17.80;9.45;;;;;;;3.14;100.00;101219.69;5033118;28;20041;-72
2024/01/28 08:06:05;;;;;;;18.15;9.10;;;;;;;3.15;100.00;101226.88;5001872;28;20038;-74
2024/01/28 08:08:31;;;;;;;14.85;8.80;;;;;;;3.13;100.00;101224.34;5001945;28;20506;-72
2024/01/28 08:10:57;;;;;;;15.07;8.48;;;;;;;3.14;100.00;101227.91;5018103;28;20040;-71
2024/01/28 08:13:22;;;;;;;17.00;8.48;;;;;;;3.16;100.00;101228.53;4998799;28;20434;-71
2024/01/28 08:15:48;;;;;;;16.70;9.63;;;;;;;3.14;100.00;101230.66;5017911;28;20056;-71
2024/01/28 08:18:14;;;;;;;17.30;10.05;;;;;;;3.21;100.00;101236.94;5034676;28;20036;-72
2024/01/28 08:20:39;;;;;;;15.70;9.13;;;;;;;3.23;100.00;101234.81;5018232;28;20029;-71
2024/01/28 08:23:05;;;;;;;19.02;10.02;;;;;;;3.27;100.00;101226.94;5034388;28;20041;-72
2024/01/28 08:25:31;;;;;;;17.58;10.07;;;;;;;3.29;100.00;101233.03;5034541;28;20521;-71
2024/01/28 08:27:56;;;;;;;15.77;9.63;;;;;;;3.32;100.00;101232.59;5067531;28;20156;-71
2024/01/28 08:30:23;;;;;;;15.48;9.48;;;;;;;3.36;100.00;101223.66;5034644;28;20033;-72
2024/01/28 08:32:49;;;;;;;22.25;10.77;;;;;;;3.42;100.00;101226.56;5018035;28;20025;-71
2024/01/28 08:35:15;;;;;;;19.77;9.75;;;;;;;3.44;100.00;101227.16;5051072;28;20041;-71
2024/01/28 08:37:40;;;;;;;19.23;10.32;;;;;;;3.53;100.00;101226.63;5032879;28;20052;-71
2024/01/28 08:40:09;;;;;;;17.13;9.00;;;;;;;3.60;100.00;101223.81;5040565;28;20029;-71
2024/01/28 08:42:35;;;;;;;20.55;10.00;;;;;;;3.66;100.00;101225.63;5019423;28;20087;-71
2024/01/28 08:45:00;;;;;;;16.67;9.20;;;;;;;3.73;100.00;101228.28;5028590;28;20030;-71
2024/01/28 08:47:26;;;;;;;17.75;9.27;;;;;;;3.78;100.00;101225.69;5034486;28;20087;-71
2024/01/28 08:49:52;;;;;;;15.32;8.57;;;;;;;3.81;100.00;101228.78;5034293;28;20032;-71
2024/01/28 08:52:19;;;;;;;16.08;8.98;;;;;;;3.90;100.00;101234.81;5017527;28;20033;-71
2024/01/28 08:54:45;;;;;;;16.92;9.15;;;;;;;3.96;100.00;101233.06;5034448;28;20033;-71
2024/01/28 08:57:11;;;;;;;17.55;8.68;;;;;;;4.02;100.00;101227.47;5033782;28;20033;-71
2024/01/28 08:59:37;;;;;;;15.15;8.50;;;;;;;4.07;100.00;101235.03;5017561;28;20029;-71
2024/01/28 09:02:03;;;;;;;15.48;8.38;;;;;;;4.16;100.00;101228.09;5014381;28;20030;-72
2024/01/28 09:04:28;;;;;;;17.48;8.32;;;;;;;4.27;100.00;101228.38;5032732;28;20029;-72
2024/01/28 09:06:54;;;;;;;14.43;7.57;;;;;;;4.31;100.00;101235.09;5034114;28;20022;-72
2024/01/28 09:09:19;;;;;;;15.43;8.52;;;;;;;4.35;100.00;101237.13;5033934;28;20024;-72
2024/01/28 09:11:45;;;;;;;16.00;8.75;;;;;;;4.42;100.00;101234.28;5017998;28;20041;-72
2024/01/28 09:14:10;;;;;;;13.73;7.72;;;;;;;4.45;100.00;101234.63;4988925;28;20083;-72
2024/01/28 09:16:36;;;;;;;14.52;7.80;;;;;;;4.53;100.00;101232.63;5021659;28;20025;-72
2024/01/28 09:19:03;;;;;;;16.88;8.20;;;;;;;4.59;100.00;101235.25;5021426;28;20068;-72
2024/01/28 09:21:32;;;;;;;16.27;8.52;;;;;;;4.67;100.00;101229.41;5037953;28;20033;-72
2024/01/28 09:23:58;;;;;;;14.65;7.72;;;;;;;4.77;100.00;101225.25;5037664;28;20116;-72
2024/01/28 09:26:23;;;;;;;13.25;7.78;;;;;;;4.88;100.00;101224.44;5004899;28;20164;-71
2024/01/28 09:28:49;;;;;;;14.63;7.80;;;;;;;5.00;100.00;101222.50;5037707;28;20034;-72
2024/01/28 09:31:15;;;;;;;15.57;7.63;;;;;;;5.11;100.00;101220.81;5037620;28;20037;-72
2024/01/28 09:33:40;;;;;;;15.38;7.38;;;;;;;5.27;100.00;101222.00;5021060;28;20057;-72
2024/01/28 09:36:06;;;;;;;12.00;7.22;;;;;;;5.40;100.00;101213.47;5037667;28;20033;-72
2024/01/28 09:38:32;;;;;;;13.65;7.65;;;;;;;5.56;100.00;101220.16;5020930;28;20033;-72
2024/01/28 09:41:37;;;;;;;17.05;7.85;;;;;;;5.76;100.00;101215.03;5039276;28;20254;-72
2024/01/28 09:44:03;;;;;;;13.90;7.38;;;;;;;5.88;100.00;101217.78;5067180;28;20105;-72
2024/01/28 09:46:30;;;;;;;13.68;7.13;;;;;;;6.00;100.00;101212.25;5032530;28;20486;-72
2024/01/28 09:48:57;;;;;;;10.90;6.68;;;;;;;6.15;100.00;101219.97;5017673;28;20037;-72
2024/01/28 09:51:22;;;;;;;13.18;7.40;;;;;;;6.25;100.00;101220.16;5000882;28;20104;-72
2024/01/28 09:53:48;;;;;;;13.25;6.65;;;;;;;6.39;100.00;101224.28;5034572;28;20029;-72
2024/01/28 09:56:15;;;;;;;11.48;6.50;;;;;;;6.53;100.00;101207.41;5000708;28;20025;-72
2024/01/28 09:58:41;;;;;;;10.05;6.47;;;;;;;6.61;100.00;101209.75;5002214;28;20398;-72
2024/01/28 10:01:08;;;;;;;13.10;7.68;;;;;;;6.70;100.00;101214.59;5001948;28;20071;-72
2024/01/28 10:03:33;;;;;;;14.02;7.50;;;;;;;6.80;100.00;101210.31;5015367;28;21047;-72
2024/01/28 10:05:59;;;;;;;11.98;7.05;;;;;;;6.91;100.00;101206.66;5017307;28;20029;-72
2024/01/28 10:08:25;;;;;;;10.30;6.47;;;;;;;7.02;100.00;101199.31;5017738;28;20103;-72
2024/01/28 10:10:53;;;;;;;11.85;6.97;;;;;;;7.13;100.00;101196.47;5000367;28;20394;-72
2024/01/28 10:13:19;;;;;;;10.65;6.50;;;;;;;7.24;100.00;101202.97;5016341;28;20049;-72
2024/01/28 10:15:56;;;;;;;13.38;7.22;;;;;;;7.31;100.00;101198.09;5032953;28;20025;-72
2024/01/28 10:18:24;;;;;;;10.82;7.18;;;;;;;7.39;100.00;101200.41;5030989;28;20060;-72
2024/01/28 10:20:50;;;;;;;13.43;7.22;;;;;;;7.48;100.00;101191.69;5029972;28;20033;-72
2024/01/28 10:23:16;;;;;;;12.00;7.13;;;;;;;7.55;100.00;101193.16;5029925;28;20033;-72
2024/01/28 10:25:43;;;;;;;12.93;7.38;;;;;;;7.61;100.00;101197.66;5001286;28;20045;-72
2024/01/28 10:28:08;;;;;;;10.48;7.00;;;;;;;7.68;100.00;101197.44;5034065;28;20064;-72
2024/01/28 10:30:34;;;;;;;14.40;7.30;;;;;;;7.75;100.00;101198.09;4999564;28;20025;-72
2024/01/28 10:32:59;;;;;;;12.68;7.15;;;;;;;7.81;100.00;101197.06;5000729;28;20095;-72
2024/01/28 10:35:25;;;;;;;13.60;6.53;;;;;;;7.88;100.00;101196.03;5001300;28;20108;-72
2024/01/28 10:37:52;;;;;;;11.07;7.32;;;;;;;7.96;100.00;101187.25;5015791;28;20033;-72
2024/01/28 10:40:17;;;;;;;12.48;6.85;;;;;;;8.04;100.00;101184.88;5034374;28;20423;-72
2024/01/28 10:42:43;;;;;;;15.15;6.88;;;;;;;8.13;100.00;101184.41;5017374;28;20032;-72
2024/01/28 10:45:09;;;;;;;14.27;6.28;;;;;;;8.20;100.00;101188.63;5002050;28;20038;-73
2024/01/28 10:47:36;;;;;;;11.90;6.55;;;;;;;8.33;100.00;101181.84;5036501;28;20526;-72
2024/01/28 10:50:05;;;;;;;10.73;6.63;;;;;;;8.43;100.00;101183.88;5012266;28;20033;-73
2024/01/28 10:52:32;;;;;;;10.70;6.65;;;;;;;8.55;100.00;101186.47;5000254;28;20068;-72
2024/01/28 10:54:57;;;;;;;8.73;5.70;;;;;;;8.62;100.00;101185.16;5000303;28;20029;-72
2024/01/28 10:57:23;;;;;;;11.35;5.82;;;;;;;8.68;100.00;101173.00;5001056;28;20026;-72
2024/01/28 10:59:51;;;;;;;10.75;5.95;;;;;;;8.74;100.00;101187.72;5000045;28;20041;-73
2024/01/28 11:02:19;;;;;;;9.88;5.40;;;;;;;8.77;100.00;101176.13;5035777;28;20049;-73
2024/01/28 11:04:45;;;;;;;13.07;6.65;;;;;;;8.80;100.00;101180.31;5003879;28;20037;-72
2024/01/28 11:07:10;;;;;;;10.38;5.95;;;;;;;8.81;100.00;101177.28;5019386;28;20497;-73
2024/01/28 11:09:36;;;;;;;11.70;6.03;;;;;;;8.85;100.00;101172.03;5035799;28;20033;-73
2024/01/28 11:12:01;;;;;;;9.68;5.30;;;;;;;8.88;100.00;101169.56;5017120;28;20403;-73
2024/01/28 11:14:27;;;;;;;8.93;5.10;;;;;;;8.91;100.00;101170.97;5003027;28;20112;-73